sensor_id;sensor_type;location;lat;lon;timestamp;P1;durP1;ratioP1;P2;durP2;ratioP2
15281;SDS011;7742;44.320;19.820;2022-07-05T00:01:21;18.70;;;17.60;;
15281;SDS011;7742;44.320;19.820;2022-07-05T00:03:49;18.80;;;17.53;;
15281;SDS011;7742;44.320;19.820;2022-07-05T00:06:17;19.00;;;17.80;;
15281;SDS011;7742;44.320;19.820;2022-07-05T00:08:44;18.93;;;17.67;;
15281;SDS011;7742;44.320;19.820;2022-07-05T00:11:12;19.70;;;18.40;;
15281;SDS011;7742;44.320;19.820;2022-07-05T00:13:40;19.13;;;18.03;;
15281;SDS011;7742;44.320;19.820;2022-07-05T00:16:09;19.40;;;18.30;;
15281;SDS011;7742;44.320;19.820;2022-07-05T00:18:37;18.93;;;17.73;;
15281;SDS011;7742;44.320;19.820;2022-07-05T00:21:05;18.90;;;17.70;;
15281;SDS011;7742;44.320;19.820;2022-07-05T00:23:33;18.67;;;17.43;;
15281;SDS011;7742;44.320;19.820;2022-07-05T00:26:01;19.77;;;18.67;;
15281;SDS011;7742;44.320;19.820;2022-07-05T00:28:28;19.10;;;17.97;;
15281;SDS011;7742;44.320;19.820;2022-07-05T00:30:56;19.87;;;18.57;;
15281;SDS011;7742;44.320;19.820;2022-07-05T00:33:25;19.47;;;18.20;;
15281;SDS011;7742;44.320;19.820;2022-07-05T00:35:53;19.53;;;18.43;;
15281;SDS011;7742;44.320;19.820;2022-07-05T00:38:20;20.10;;;18.73;;
15281;SDS011;7742;44.320;19.820;2022-07-05T00:40:49;20.13;;;18.83;;
15281;SDS011;7742;44.320;19.820;2022-07-05T00:43:16;20.37;;;19.07;;
15281;SDS011;7742;44.320;19.820;2022-07-05T00:45:46;20.03;;;18.83;;
15281;SDS011;7742;44.320;19.820;2022-07-05T00:48:14;20.33;;;19.03;;
15281;SDS011;7742;44.320;19.820;2022-07-05T00:50:43;19.97;;;18.77;;
15281;SDS011;7742;44.320;19.820;2022-07-05T00:53:11;20.10;;;18.70;;
15281;SDS011;7742;44.320;19.820;2022-07-05T00:55:40;19.00;;;17.87;;
15281;SDS011;7742;44.320;19.820;2022-07-05T00:58:09;20.20;;;18.90;;
15281;SDS011;7742;44.320;19.820;2022-07-05T01:00:37;19.23;;;18.13;;
15281;SDS011;7742;44.320;19.820;2022-07-05T01:03:04;19.33;;;18.03;;
15281;SDS011;7742;44.320;19.820;2022-07-05T01:05:32;19.83;;;18.63;;
15281;SDS011;7742;44.320;19.820;2022-07-05T01:08:02;19.53;;;18.33;;
15281;SDS011;7742;44.320;19.820;2022-07-05T01:10:31;20.03;;;18.93;;
15281;SDS011;7742;44.320;19.820;2022-07-05T01:12:59;20.37;;;19.07;;
15281;SDS011;7742;44.320;19.820;2022-07-05T01:15:27;20.30;;;19.00;;
15281;SDS011;7742;44.320;19.820;2022-07-05T01:17:55;20.30;;;18.90;;
15281;SDS011;7742;44.320;19.820;2022-07-05T01:20:23;20.57;;;19.27;;
15281;SDS011;7742;44.320;19.820;2022-07-05T01:22:52;19.77;;;18.57;;
15281;SDS011;7742;44.320;19.820;2022-07-05T01:25:20;20.13;;;18.97;;
15281;SDS011;7742;44.320;19.820;2022-07-05T01:27:48;20.20;;;18.87;;
15281;SDS011;7742;44.320;19.820;2022-07-05T01:30:17;21.37;;;20.13;;
15281;SDS011;7742;44.320;19.820;2022-07-05T01:32:45;20.93;;;19.53;;
15281;SDS011;7742;44.320;19.820;2022-07-05T01:35:13;20.20;;;18.80;;
15281;SDS011;7742;44.320;19.820;2022-07-05T01:37:45;20.10;;;18.83;;
15281;SDS011;7742;44.320;19.820;2022-07-05T01:40:15;19.57;;;18.37;;
15281;SDS011;7742;44.320;19.820;2022-07-05T01:42:43;19.73;;;18.53;;
15281;SDS011;7742;44.320;19.820;2022-07-05T01:45:10;19.63;;;18.43;;
15281;SDS011;7742;44.320;19.820;2022-07-05T01:47:58;19.70;;;18.47;;
15281;SDS011;7742;44.320;19.820;2022-07-05T01:50:26;19.60;;;18.50;;
15281;SDS011;7742;44.320;19.820;2022-07-05T01:52:56;19.90;;;18.67;;
15281;SDS011;7742;44.320;19.820;2022-07-05T01:55:25;20.63;;;19.27;;
15281;SDS011;7742;44.320;19.820;2022-07-05T01:57:53;19.73;;;18.53;;
15281;SDS011;7742;44.320;19.820;2022-07-05T02:00:20;19.67;;;18.47;;
15281;SDS011;7742;44.320;19.820;2022-07-05T02:02:48;19.70;;;18.50;;
15281;SDS011;7742;44.320;19.820;2022-07-05T02:05:16;20.43;;;19.13;;
15281;SDS011;7742;44.320;19.820;2022-07-05T02:07:46;20.57;;;19.23;;
15281;SDS011;7742;44.320;19.820;2022-07-05T02:10:15;19.13;;;17.93;;
15281;SDS011;7742;44.320;19.820;2022-07-05T02:13:04;20.23;;;18.93;;
15281;SDS011;7742;44.320;19.820;2022-07-05T02:15:38;20.40;;;19.03;;
15281;SDS011;7742;44.320;19.820;2022-07-05T02:18:06;19.47;;;18.33;;
15281;SDS011;7742;44.320;19.820;2022-07-05T02:20:34;20.33;;;19.03;;
15281;SDS011;7742;44.320;19.820;2022-07-05T02:23:02;19.93;;;18.50;;
15281;SDS011;7742;44.320;19.820;2022-07-05T02:25:29;19.47;;;18.23;;
15281;SDS011;7742;44.320;19.820;2022-07-05T02:27:57;19.00;;;17.87;;
15281;SDS011;7742;44.320;19.820;2022-07-05T02:30:26;20.67;;;19.37;;
15281;SDS011;7742;44.320;19.820;2022-07-05T02:32:54;20.60;;;19.37;;
15281;SDS011;7742;44.320;19.820;2022-07-05T02:35:22;21.70;;;20.03;;
15281;SDS011;7742;44.320;19.820;2022-07-05T02:37:50;20.07;;;18.77;;
15281;SDS011;7742;44.320;19.820;2022-07-05T02:40:17;20.57;;;19.17;;
15281;SDS011;7742;44.320;19.820;2022-07-05T02:42:45;20.13;;;18.93;;
15281;SDS011;7742;44.320;19.820;2022-07-05T02:45:13;19.87;;;18.63;;
15281;SDS011;7742;44.320;19.820;2022-07-05T02:47:42;19.90;;;18.60;;
15281;SDS011;7742;44.320;19.820;2022-07-05T02:50:10;17.80;;;16.70;;
15281;SDS011;7742;44.320;19.820;2022-07-05T02:52:38;17.70;;;16.63;;
15281;SDS011;7742;44.320;19.820;2022-07-05T02:55:06;18.87;;;17.77;;
15281;SDS011;7742;44.320;19.820;2022-07-05T02:57:36;18.93;;;17.93;;
15281;SDS011;7742;44.320;19.820;2022-07-05T03:00:04;19.23;;;18.07;;
15281;SDS011;7742;44.320;19.820;2022-07-05T03:02:32;19.80;;;18.60;;
15281;SDS011;7742;44.320;19.820;2022-07-05T03:05:01;19.83;;;18.63;;
15281;SDS011;7742;44.320;19.820;2022-07-05T03:07:29;19.60;;;18.40;;
15281;SDS011;7742;44.320;19.820;2022-07-05T03:09:56;18.60;;;17.50;;
15281;SDS011;7742;44.320;19.820;2022-07-05T03:12:24;19.60;;;18.40;;
15281;SDS011;7742;44.320;19.820;2022-07-05T03:14:52;19.83;;;18.73;;
15281;SDS011;7742;44.320;19.820;2022-07-05T03:17:19;19.73;;;18.53;;
15281;SDS011;7742;44.320;19.820;2022-07-05T03:19:47;19.70;;;18.60;;
15281;SDS011;7742;44.320;19.820;2022-07-05T03:22:16;19.00;;;17.80;;
15281;SDS011;7742;44.320;19.820;2022-07-05T03:24:44;19.87;;;18.47;;
15281;SDS011;7742;44.320;19.820;2022-07-05T03:27:12;19.43;;;18.17;;
15281;SDS011;7742;44.320;19.820;2022-07-05T03:29:39;19.40;;;18.30;;
15281;SDS011;7742;44.320;19.820;2022-07-05T03:32:07;19.27;;;18.03;;
15281;SDS011;7742;44.320;19.820;2022-07-05T03:34:35;20.10;;;18.73;;
15281;SDS011;7742;44.320;19.820;2022-07-05T03:37:03;19.53;;;18.33;;
15281;SDS011;7742;44.320;19.820;2022-07-05T03:39:32;20.13;;;18.73;;
15281;SDS011;7742;44.320;19.820;2022-07-05T03:42:00;20.00;;;18.70;;
15281;SDS011;7742;44.320;19.820;2022-07-05T03:44:28;20.17;;;18.97;;
15281;SDS011;7742;44.320;19.820;2022-07-05T03:46:57;19.13;;;18.03;;
15281;SDS011;7742;44.320;19.820;2022-07-05T03:49:25;19.57;;;18.40;;
15281;SDS011;7742;44.320;19.820;2022-07-05T03:51:53;18.77;;;17.57;;
15281;SDS011;7742;44.320;19.820;2022-07-05T03:54:21;19.37;;;18.27;;
15281;SDS011;7742;44.320;19.820;2022-07-05T03:56:50;20.23;;;19.00;;
15281;SDS011;7742;44.320;19.820;2022-07-05T03:59:17;18.13;;;17.03;;
15281;SDS011;7742;44.320;19.820;2022-07-05T04:01:45;18.83;;;17.73;;
15281;SDS011;7742;44.320;19.820;2022-07-05T04:04:13;19.10;;;18.00;;
15281;SDS011;7742;44.320;19.820;2022-07-05T04:06:40;19.50;;;18.30;;
15281;SDS011;7742;44.320;19.820;2022-07-05T04:09:08;19.20;;;18.00;;
15281;SDS011;7742;44.320;19.820;2022-07-05T04:11:36;17.70;;;16.77;;
15281;SDS011;7742;44.320;19.820;2022-07-05T04:14:05;18.50;;;17.50;;
15281;SDS011;7742;44.320;19.820;2022-07-05T04:16:34;17.85;;;16.85;;
15281;SDS011;7742;44.320;19.820;2022-07-05T04:19:02;17.30;;;16.30;;
15281;SDS011;7742;44.320;19.820;2022-07-05T04:21:29;18.88;;;17.65;;
15281;SDS011;7742;44.320;19.820;2022-07-05T04:23:57;19.25;;;18.00;;
15281;SDS011;7742;44.320;19.820;2022-07-05T04:26:25;19.67;;;18.30;;
15281;SDS011;7742;44.320;19.820;2022-07-05T04:28:52;23.55;;;19.13;;
15281;SDS011;7742;44.320;19.820;2022-07-05T04:31:22;20.48;;;19.27;;
15281;SDS011;7742;44.320;19.820;2022-07-05T04:33:49;20.65;;;19.38;;
15281;SDS011;7742;44.320;19.820;2022-07-05T04:36:17;21.23;;;20.02;;
15281;SDS011;7742;44.320;19.820;2022-07-05T04:38:45;20.00;;;18.70;;
15281;SDS011;7742;44.320;19.820;2022-07-05T04:41:12;20.15;;;18.85;;
15281;SDS011;7742;44.320;19.820;2022-07-05T04:43:40;20.02;;;18.85;;
15281;SDS011;7742;44.320;19.820;2022-07-05T04:46:08;20.13;;;18.83;;
15281;SDS011;7742;44.320;19.820;2022-07-05T04:48:37;19.73;;;18.52;;
15281;SDS011;7742;44.320;19.820;2022-07-05T04:51:05;18.80;;;17.80;;
15281;SDS011;7742;44.320;19.820;2022-07-05T04:53:32;19.58;;;18.48;;
15281;SDS011;7742;44.320;19.820;2022-07-05T04:56:00;19.15;;;17.85;;
15281;SDS011;7742;44.320;19.820;2022-07-05T04:58:28;19.48;;;18.25;;
15281;SDS011;7742;44.320;19.820;2022-07-05T05:00:55;18.80;;;17.58;;
15281;SDS011;7742;44.320;19.820;2022-07-05T05:03:23;18.50;;;17.40;;
15281;SDS011;7742;44.320;19.820;2022-07-05T05:05:52;19.10;;;17.80;;
15281;SDS011;7742;44.320;19.820;2022-07-05T05:08:20;19.77;;;18.48;;
15281;SDS011;7742;44.320;19.820;2022-07-05T05:10:47;19.08;;;17.98;;
15281;SDS011;7742;44.320;19.820;2022-07-05T05:13:15;18.90;;;17.80;;
15281;SDS011;7742;44.320;19.820;2022-07-05T05:15:43;19.05;;;17.90;;
15281;SDS011;7742;44.320;19.820;2022-07-05T05:18:11;20.25;;;18.75;;
15281;SDS011;7742;44.320;19.820;2022-07-05T05:20:39;20.83;;;19.73;;
15281;SDS011;7742;44.320;19.820;2022-07-05T05:23:08;19.70;;;18.65;;
15281;SDS011;7742;44.320;19.820;2022-07-05T05:25:35;21.25;;;19.85;;
15281;SDS011;7742;44.320;19.820;2022-07-05T05:28:03;19.90;;;18.70;;
15281;SDS011;7742;44.320;19.820;2022-07-05T05:30:31;20.60;;;19.08;;
15281;SDS011;7742;44.320;19.820;2022-07-05T05:32:59;20.98;;;19.88;;
15281;SDS011;7742;44.320;19.820;2022-07-05T05:35:27;21.27;;;19.88;;
15281;SDS011;7742;44.320;19.820;2022-07-05T05:37:54;21.33;;;19.88;;
15281;SDS011;7742;44.320;19.820;2022-07-05T05:40:24;22.10;;;20.77;;
15281;SDS011;7742;44.320;19.820;2022-07-05T05:42:52;21.65;;;20.35;;
15281;SDS011;7742;44.320;19.820;2022-07-05T05:45:21;21.88;;;20.48;;
15281;SDS011;7742;44.320;19.820;2022-07-05T05:47:49;21.88;;;20.58;;
15281;SDS011;7742;44.320;19.820;2022-07-05T05:50:20;22.15;;;20.65;;
15281;SDS011;7742;44.320;19.820;2022-07-05T05:52:48;22.83;;;21.23;;
15281;SDS011;7742;44.320;19.820;2022-07-05T05:55:16;22.58;;;21.08;;
15281;SDS011;7742;44.320;19.820;2022-07-05T05:57:45;22.38;;;20.98;;
15281;SDS011;7742;44.320;19.820;2022-07-05T06:00:13;22.42;;;20.92;;
15281;SDS011;7742;44.320;19.820;2022-07-05T06:02:41;22.35;;;20.90;;
15281;SDS011;7742;44.320;19.820;2022-07-05T06:05:09;22.23;;;20.83;;
15281;SDS011;7742;44.320;19.820;2022-07-05T06:07:44;22.75;;;21.35;;
15281;SDS011;7742;44.320;19.820;2022-07-05T06:10:14;22.40;;;21.00;;
15281;SDS011;7742;44.320;19.820;2022-07-05T06:12:42;22.23;;;20.67;;
15281;SDS011;7742;44.320;19.820;2022-07-05T06:15:11;22.13;;;20.73;;
15281;SDS011;7742;44.320;19.820;2022-07-05T06:17:39;22.13;;;20.73;;
15281;SDS011;7742;44.320;19.820;2022-07-05T06:20:07;21.58;;;20.38;;
15281;SDS011;7742;44.320;19.820;2022-07-05T06:22:36;22.60;;;21.00;;
15281;SDS011;7742;44.320;19.820;2022-07-05T06:25:04;21.60;;;20.15;;
15281;SDS011;7742;44.320;19.820;2022-07-05T06:27:33;21.83;;;20.48;;
15281;SDS011;7742;44.320;19.820;2022-07-05T06:30:05;21.30;;;20.10;;
15281;SDS011;7742;44.320;19.820;2022-07-05T06:32:34;22.42;;;20.83;;
15281;SDS011;7742;44.320;19.820;2022-07-05T06:35:02;21.33;;;20.02;;
15281;SDS011;7742;44.320;19.820;2022-07-05T06:37:39;21.27;;;19.88;;
15281;SDS011;7742;44.320;19.820;2022-07-05T06:40:08;22.67;;;21.27;;
15281;SDS011;7742;44.320;19.820;2022-07-05T06:42:36;22.92;;;21.52;;
15281;SDS011;7742;44.320;19.820;2022-07-05T06:45:04;22.58;;;21.20;;
15281;SDS011;7742;44.320;19.820;2022-07-05T06:47:33;23.60;;;22.00;;
15281;SDS011;7742;44.320;19.820;2022-07-05T06:50:01;22.65;;;21.35;;
15281;SDS011;7742;44.320;19.820;2022-07-05T06:52:29;23.15;;;21.58;;
15281;SDS011;7742;44.320;19.820;2022-07-05T06:54:57;22.55;;;21.13;;
15281;SDS011;7742;44.320;19.820;2022-07-05T06:57:25;22.35;;;20.98;;
15281;SDS011;7742;44.320;19.820;2022-07-05T06:59:53;21.40;;;20.08;;
15281;SDS011;7742;44.320;19.820;2022-07-05T07:02:20;23.95;;;22.27;;
15281;SDS011;7742;44.320;19.820;2022-07-05T07:04:50;24.33;;;22.73;;
15281;SDS011;7742;44.320;19.820;2022-07-05T07:07:17;24.90;;;23.35;;
15281;SDS011;7742;44.320;19.820;2022-07-05T07:10:17;24.08;;;22.58;;
15281;SDS011;7742;44.320;19.820;2022-07-05T07:12:44;24.65;;;23.15;;
15281;SDS011;7742;44.320;19.820;2022-07-05T07:15:12;24.65;;;23.00;;
15281;SDS011;7742;44.320;19.820;2022-07-05T07:17:40;25.88;;;24.27;;
15281;SDS011;7742;44.320;19.820;2022-07-05T07:20:09;25.38;;;23.65;;
15281;SDS011;7742;44.320;19.820;2022-07-05T07:22:37;25.88;;;24.00;;
15281;SDS011;7742;44.320;19.820;2022-07-05T07:25:05;26.63;;;24.65;;
15281;SDS011;7742;44.320;19.820;2022-07-05T07:27:40;24.30;;;22.85;;
15281;SDS011;7742;44.320;19.820;2022-07-05T07:30:09;25.15;;;23.45;;
15281;SDS011;7742;44.320;19.820;2022-07-05T07:32:37;24.30;;;22.80;;
15281;SDS011;7742;44.320;19.820;2022-07-05T07:35:05;24.30;;;22.75;;
15281;SDS011;7742;44.320;19.820;2022-07-05T07:37:34;24.33;;;22.83;;
15281;SDS011;7742;44.320;19.820;2022-07-05T07:40:02;23.80;;;22.40;;
15281;SDS011;7742;44.320;19.820;2022-07-05T07:42:30;23.45;;;22.15;;
15281;SDS011;7742;44.320;19.820;2022-07-05T07:44:58;25.25;;;23.75;;
15281;SDS011;7742;44.320;19.820;2022-07-05T07:47:28;25.13;;;23.63;;
15281;SDS011;7742;44.320;19.820;2022-07-05T07:49:56;25.15;;;23.55;;
15281;SDS011;7742;44.320;19.820;2022-07-05T07:52:24;25.20;;;23.60;;
15281;SDS011;7742;44.320;19.820;2022-07-05T07:54:53;24.85;;;23.40;;
15281;SDS011;7742;44.320;19.820;2022-07-05T07:57:21;24.25;;;22.80;;
15281;SDS011;7742;44.320;19.820;2022-07-05T07:59:49;25.42;;;23.75;;
15281;SDS011;7742;44.320;19.820;2022-07-05T08:02:17;24.83;;;23.33;;
15281;SDS011;7742;44.320;19.820;2022-07-05T08:04:46;25.85;;;24.13;;
15281;SDS011;7742;44.320;19.820;2022-07-05T08:07:14;24.40;;;22.58;;
15281;SDS011;7742;44.320;19.820;2022-07-05T08:09:42;23.90;;;22.50;;
15281;SDS011;7742;44.320;19.820;2022-07-05T08:12:12;24.05;;;22.52;;
15281;SDS011;7742;44.320;19.820;2022-07-05T08:14:39;25.33;;;23.55;;
15281;SDS011;7742;44.320;19.820;2022-07-05T08:17:07;25.20;;;23.60;;
15281;SDS011;7742;44.320;19.820;2022-07-05T08:19:35;23.67;;;22.17;;
15281;SDS011;7742;44.320;19.820;2022-07-05T08:22:20;24.70;;;22.90;;
15281;SDS011;7742;44.320;19.820;2022-07-05T08:24:48;24.23;;;22.73;;
15281;SDS011;7742;44.320;19.820;2022-07-05T08:27:17;25.83;;;24.33;;
15281;SDS011;7742;44.320;19.820;2022-07-05T08:29:45;27.35;;;25.15;;
15281;SDS011;7742;44.320;19.820;2022-07-05T08:32:13;25.48;;;23.77;;
15281;SDS011;7742;44.320;19.820;2022-07-05T08:34:41;26.08;;;24.35;;
15281;SDS011;7742;44.320;19.820;2022-07-05T08:37:08;26.48;;;24.58;;
15281;SDS011;7742;44.320;19.820;2022-07-05T08:39:36;27.58;;;25.67;;
15281;SDS011;7742;44.320;19.820;2022-07-05T08:42:04;25.90;;;24.20;;
15281;SDS011;7742;44.320;19.820;2022-07-05T08:44:37;25.02;;;23.58;;
15281;SDS011;7742;44.320;19.820;2022-07-05T08:47:08;24.83;;;23.02;;
15281;SDS011;7742;44.320;19.820;2022-07-05T08:49:37;26.00;;;24.17;;
15281;SDS011;7742;44.320;19.820;2022-07-05T08:52:06;26.40;;;24.77;;
15281;SDS011;7742;44.320;19.820;2022-07-05T08:54:34;27.85;;;25.70;;
15281;SDS011;7742;44.320;19.820;2022-07-05T08:57:04;26.42;;;24.52;;
15281;SDS011;7742;44.320;19.820;2022-07-05T08:59:31;28.25;;;26.10;;
15281;SDS011;7742;44.320;19.820;2022-07-05T09:02:01;28.48;;;26.23;;
15281;SDS011;7742;44.320;19.820;2022-07-05T09:04:30;28.88;;;26.88;;
15281;SDS011;7742;44.320;19.820;2022-07-05T09:07:00;28.52;;;26.17;;
15281;SDS011;7742;44.320;19.820;2022-07-05T09:09:29;25.77;;;24.10;;
15281;SDS011;7742;44.320;19.820;2022-07-05T09:11:59;25.83;;;24.13;;
15281;SDS011;7742;44.320;19.820;2022-07-05T09:14:26;27.75;;;25.67;;
15281;SDS011;7742;44.320;19.820;2022-07-05T09:16:54;24.92;;;23.33;;
15281;SDS011;7742;44.320;19.820;2022-07-05T09:19:23;27.02;;;25.15;;
15281;SDS011;7742;44.320;19.820;2022-07-05T09:22:00;26.35;;;24.73;;
15281;SDS011;7742;44.320;19.820;2022-07-05T09:24:28;26.95;;;25.17;;
15281;SDS011;7742;44.320;19.820;2022-07-05T09:27:01;27.40;;;24.98;;
15281;SDS011;7742;44.320;19.820;2022-07-05T09:29:29;28.08;;;25.95;;
15281;SDS011;7742;44.320;19.820;2022-07-05T09:31:57;25.70;;;23.95;;
15281;SDS011;7742;44.320;19.820;2022-07-05T09:34:26;28.42;;;26.27;;
15281;SDS011;7742;44.320;19.820;2022-07-05T09:36:57;25.85;;;24.45;;
15281;SDS011;7742;44.320;19.820;2022-07-05T09:39:37;27.42;;;25.58;;
15281;SDS011;7742;44.320;19.820;2022-07-05T09:42:08;26.60;;;24.95;;
15281;SDS011;7742;44.320;19.820;2022-07-05T09:44:36;27.25;;;25.38;;
15281;SDS011;7742;44.320;19.820;2022-07-05T09:47:07;26.33;;;24.58;;
15281;SDS011;7742;44.320;19.820;2022-07-05T09:49:39;27.20;;;25.42;;
15281;SDS011;7742;44.320;19.820;2022-07-05T09:52:08;25.55;;;23.95;;
15281;SDS011;7742;44.320;19.820;2022-07-05T09:54:37;24.13;;;22.80;;
15281;SDS011;7742;44.320;19.820;2022-07-05T09:57:05;24.65;;;23.15;;
15281;SDS011;7742;44.320;19.820;2022-07-05T09:59:35;25.88;;;24.15;;
15281;SDS011;7742;44.320;19.820;2022-07-05T10:02:05;25.30;;;23.58;;
15281;SDS011;7742;44.320;19.820;2022-07-05T10:04:33;25.48;;;23.85;;
15281;SDS011;7742;44.320;19.820;2022-07-05T10:07:02;24.48;;;22.88;;
15281;SDS011;7742;44.320;19.820;2022-07-05T10:09:30;24.05;;;22.55;;
15281;SDS011;7742;44.320;19.820;2022-07-05T10:11:58;23.65;;;22.02;;
15281;SDS011;7742;44.320;19.820;2022-07-05T10:14:27;24.85;;;23.02;;
15281;SDS011;7742;44.320;19.820;2022-07-05T10:16:59;24.23;;;22.88;;
15281;SDS011;7742;44.320;19.820;2022-07-05T10:19:28;24.67;;;23.10;;
15281;SDS011;7742;44.320;19.820;2022-07-05T10:21:56;24.88;;;23.38;;
15281;SDS011;7742;44.320;19.820;2022-07-05T10:24:25;26.88;;;25.15;;
15281;SDS011;7742;44.320;19.820;2022-07-05T10:26:53;24.67;;;22.98;;
15281;SDS011;7742;44.320;19.820;2022-07-05T10:29:22;26.35;;;24.60;;
15281;SDS011;7742;44.320;19.820;2022-07-05T10:31:50;26.73;;;25.05;;
15281;SDS011;7742;44.320;19.820;2022-07-05T10:34:18;26.98;;;25.00;;
15281;SDS011;7742;44.320;19.820;2022-07-05T10:36:46;25.52;;;23.70;;
15281;SDS011;7742;44.320;19.820;2022-07-05T10:39:15;25.58;;;23.92;;
15281;SDS011;7742;44.320;19.820;2022-07-05T10:41:44;25.08;;;23.45;;
15281;SDS011;7742;44.320;19.820;2022-07-05T10:44:24;25.63;;;23.77;;
15281;SDS011;7742;44.320;19.820;2022-07-05T10:46:52;25.27;;;23.67;;
15281;SDS011;7742;44.320;19.820;2022-07-05T10:49:35;25.38;;;23.92;;
15281;SDS011;7742;44.320;19.820;2022-07-05T10:52:03;25.55;;;23.73;;
15281;SDS011;7742;44.320;19.820;2022-07-05T10:54:32;25.42;;;23.75;;
15281;SDS011;7742;44.320;19.820;2022-07-05T11:00:05;24.98;;;23.38;;
15281;SDS011;7742;44.320;19.820;2022-07-05T11:02:33;25.88;;;24.25;;
15281;SDS011;7742;44.320;19.820;2022-07-05T11:05:01;26.52;;;24.73;;
15281;SDS011;7742;44.320;19.820;2022-07-05T11:10:15;26.50;;;24.60;;
15281;SDS011;7742;44.320;19.820;2022-07-05T11:12:43;23.60;;;22.10;;
15281;SDS011;7742;44.320;19.820;2022-07-05T11:15:12;23.50;;;21.80;;
15281;SDS011;7742;44.320;19.820;2022-07-05T11:17:40;21.85;;;20.05;;
15281;SDS011;7742;44.320;19.820;2022-07-05T11:20:09;21.45;;;20.00;;
15281;SDS011;7742;44.320;19.820;2022-07-05T11:22:37;20.70;;;19.40;;
15281;SDS011;7742;44.320;19.820;2022-07-05T11:25:07;20.88;;;19.48;;
15281;SDS011;7742;44.320;19.820;2022-07-05T11:27:35;20.90;;;19.60;;
15281;SDS011;7742;44.320;19.820;2022-07-05T11:30:03;20.20;;;18.90;;
15281;SDS011;7742;44.320;19.820;2022-07-05T11:32:36;21.42;;;19.95;;
15281;SDS011;7742;44.320;19.820;2022-07-05T11:35:14;20.85;;;19.45;;
15281;SDS011;7742;44.320;19.820;2022-07-05T11:38:03;20.80;;;19.17;;
15281;SDS011;7742;44.320;19.820;2022-07-05T11:40:32;20.77;;;19.33;;
15281;SDS011;7742;44.320;19.820;2022-07-05T11:43:01;20.88;;;19.67;;
15281;SDS011;7742;44.320;19.820;2022-07-05T11:45:32;21.40;;;20.17;;
15281;SDS011;7742;44.320;19.820;2022-07-05T11:48:02;21.08;;;19.80;;
15281;SDS011;7742;44.320;19.820;2022-07-05T11:50:32;22.33;;;20.85;;
15281;SDS011;7742;44.320;19.820;2022-07-05T11:53:00;21.75;;;20.25;;
15281;SDS011;7742;44.320;19.820;2022-07-05T11:55:31;21.67;;;20.27;;
15281;SDS011;7742;44.320;19.820;2022-07-05T11:57:59;21.17;;;19.77;;
15281;SDS011;7742;44.320;19.820;2022-07-05T12:00:27;20.60;;;19.20;;
15281;SDS011;7742;44.320;19.820;2022-07-05T12:02:55;20.50;;;19.27;;
15281;SDS011;7742;44.320;19.820;2022-07-05T12:05:34;21.05;;;19.55;;
15281;SDS011;7742;44.320;19.820;2022-07-05T12:08:04;20.42;;;18.88;;
15281;SDS011;7742;44.320;19.820;2022-07-05T12:10:32;19.60;;;18.08;;
15281;SDS011;7742;44.320;19.820;2022-07-05T12:13:22;19.50;;;18.33;;
15281;SDS011;7742;44.320;19.820;2022-07-05T12:15:53;21.05;;;19.63;;
15281;SDS011;7742;44.320;19.820;2022-07-05T12:18:26;21.33;;;19.92;;
15281;SDS011;7742;44.320;19.820;2022-07-05T12:20:56;21.38;;;20.10;;
15281;SDS011;7742;44.320;19.820;2022-07-05T12:23:26;21.85;;;20.35;;
15281;SDS011;7742;44.320;19.820;2022-07-05T12:25:55;20.48;;;19.15;;
15281;SDS011;7742;44.320;19.820;2022-07-05T12:28:25;22.38;;;20.83;;
15281;SDS011;7742;44.320;19.820;2022-07-05T12:30:53;22.58;;;21.17;;
15281;SDS011;7742;44.320;19.820;2022-07-05T12:33:29;22.38;;;20.80;;
15281;SDS011;7742;44.320;19.820;2022-07-05T12:36:02;22.73;;;20.95;;
15281;SDS011;7742;44.320;19.820;2022-07-05T12:38:32;21.02;;;19.75;;
15281;SDS011;7742;44.320;19.820;2022-07-05T12:41:09;20.40;;;19.05;;
15281;SDS011;7742;44.320;19.820;2022-07-05T12:43:51;20.20;;;19.08;;
15281;SDS011;7742;44.320;19.820;2022-07-05T12:46:35;19.77;;;18.52;;
15281;SDS011;7742;44.320;19.820;2022-07-05T12:49:11;17.88;;;16.88;;
15281;SDS011;7742;44.320;19.820;2022-07-05T13:01:02;18.75;;;17.70;;
15281;SDS011;7742;44.320;19.820;2022-07-05T13:03:57;18.80;;;17.60;;
15281;SDS011;7742;44.320;19.820;2022-07-05T13:12:20;20.25;;;18.88;;
15281;SDS011;7742;44.320;19.820;2022-07-05T13:15:11;19.55;;;18.45;;
15281;SDS011;7742;44.320;19.820;2022-07-05T13:20:29;19.15;;;17.85;;
15281;SDS011;7742;44.320;19.820;2022-07-05T13:22:57;20.17;;;18.63;;
15281;SDS011;7742;44.320;19.820;2022-07-05T13:25:25;20.35;;;18.85;;
15281;SDS011;7742;44.320;19.820;2022-07-05T13:27:53;18.65;;;17.45;;
15281;SDS011;7742;44.320;19.820;2022-07-05T13:30:24;20.27;;;19.15;;
15281;SDS011;7742;44.320;19.820;2022-07-05T13:32:52;19.75;;;18.58;;
15281;SDS011;7742;44.320;19.820;2022-07-05T13:35:21;19.52;;;18.42;;
15281;SDS011;7742;44.320;19.820;2022-07-05T13:37:52;20.50;;;19.30;;
15281;SDS011;7742;44.320;19.820;2022-07-05T13:40:21;21.08;;;19.73;;
15281;SDS011;7742;44.320;19.820;2022-07-05T13:42:50;22.13;;;20.83;;
15281;SDS011;7742;44.320;19.820;2022-07-05T13:45:18;21.48;;;19.90;;
15281;SDS011;7742;44.320;19.820;2022-07-05T13:47:52;20.73;;;19.52;;
15281;SDS011;7742;44.320;19.820;2022-07-05T13:50:21;20.45;;;19.13;;
15281;SDS011;7742;44.320;19.820;2022-07-05T13:53:00;22.33;;;20.90;;
15281;SDS011;7742;44.320;19.820;2022-07-05T13:55:28;22.00;;;20.70;;
15281;SDS011;7742;44.320;19.820;2022-07-05T13:57:56;23.08;;;21.63;;
15281;SDS011;7742;44.320;19.820;2022-07-05T14:00:24;21.05;;;19.85;;
15281;SDS011;7742;44.320;19.820;2022-07-05T14:02:52;21.42;;;19.95;;
15281;SDS011;7742;44.320;19.820;2022-07-05T14:05:21;21.40;;;20.00;;
15281;SDS011;7742;44.320;19.820;2022-07-05T14:07:49;21.25;;;19.85;;
15281;SDS011;7742;44.320;19.820;2022-07-05T14:10:23;21.98;;;20.50;;
15281;SDS011;7742;44.320;19.820;2022-07-05T14:12:52;20.75;;;19.45;;
15281;SDS011;7742;44.320;19.820;2022-07-05T14:15:25;21.38;;;20.00;;
15281;SDS011;7742;44.320;19.820;2022-07-05T14:18:14;20.00;;;18.83;;
15281;SDS011;7742;44.320;19.820;2022-07-05T14:20:42;21.13;;;19.83;;
15281;SDS011;7742;44.320;19.820;2022-07-05T14:23:11;19.95;;;18.77;;
15281;SDS011;7742;44.320;19.820;2022-07-05T14:25:42;19.45;;;18.15;;
15281;SDS011;7742;44.320;19.820;2022-07-05T14:28:13;18.15;;;17.05;;
15281;SDS011;7742;44.320;19.820;2022-07-05T14:30:44;19.08;;;18.08;;
15281;SDS011;7742;44.320;19.820;2022-07-05T14:33:27;18.40;;;17.40;;
15281;SDS011;7742;44.320;19.820;2022-07-05T14:35:55;18.07;;;17.07;;
15281;SDS011;7742;44.320;19.820;2022-07-05T14:38:37;16.90;;;15.80;;
15281;SDS011;7742;44.320;19.820;2022-07-05T14:41:11;17.27;;;16.33;;
15281;SDS011;7742;44.320;19.820;2022-07-05T14:43:41;16.23;;;15.20;;
15281;SDS011;7742;44.320;19.820;2022-07-05T14:46:09;17.30;;;16.40;;
15281;SDS011;7742;44.320;19.820;2022-07-05T14:48:47;15.83;;;15.03;;
15281;SDS011;7742;44.320;19.820;2022-07-05T14:51:20;14.63;;;13.93;;
15281;SDS011;7742;44.320;19.820;2022-07-05T14:53:49;16.03;;;15.13;;
15281;SDS011;7742;44.320;19.820;2022-07-05T14:56:33;14.53;;;13.73;;
15281;SDS011;7742;44.320;19.820;2022-07-05T14:59:04;14.73;;;13.83;;